sensor_id;sensor_type;location;lat;lon;timestamp;pressure;altitude;pressure_sealevel;temperature;humidity
60489;BME280;46331;49.252;8.904;2022-07-04T00:02:24;99911.84;;;20.29;66.66
60489;BME280;46331;49.252;8.904;2022-07-04T00:04:50;99909.44;;;20.27;66.43
60489;BME280;46331;49.252;8.904;2022-07-04T00:07:16;99911.91;;;20.24;67.51
60489;BME280;46331;49.252;8.904;2022-07-04T00:09:41;99913.34;;;20.21;67.93
60489;BME280;46331;49.252;8.904;2022-07-04T00:12:07;99915.31;;;20.15;67.94
60489;BME280;46331;49.252;8.904;2022-07-04T00:14:33;99921.00;;;20.14;67.39
60489;BME280;46331;49.252;8.904;2022-07-04T00:16:58;99919.91;;;20.15;67.35
60489;BME280;46331;49.252;8.904;2022-07-04T00:19:24;99920.50;;;20.12;67.17
60489;BME280;46331;49.252;8.904;2022-07-04T00:21:49;99913.78;;;20.09;67.05
60489;BME280;46331;49.252;8.904;2022-07-04T00:24:15;99915.19;;;20.07;66.99
60489;BME280;46331;49.252;8.904;2022-07-04T00:26:41;99916.88;;;20.03;65.80
60489;BME280;46331;49.252;8.904;2022-07-04T00:29:06;99904.81;;;20.00;65.06
60489;BME280;46331;49.252;8.904;2022-07-04T00:31:32;99914.16;;;19.89;68.42
60489;BME280;46331;49.252;8.904;2022-07-04T00:33:58;99912.75;;;19.91;67.92
60489;BME280;46331;49.252;8.904;2022-07-04T00:36:23;99919.25;;;19.90;67.95
60489;BME280;46331;49.252;8.904;2022-07-04T00:38:49;99903.69;;;19.87;68.86
60489;BME280;46331;49.252;8.904;2022-07-04T00:41:14;99909.06;;;19.87;68.26
60489;BME280;46331;49.252;8.904;2022-07-04T00:43:40;99910.94;;;19.87;68.08
60489;BME280;46331;49.252;8.904;2022-07-04T00:46:05;99918.03;;;19.82;68.41
60489;BME280;46331;49.252;8.904;2022-07-04T00:48:32;99921.00;;;19.81;68.59
60489;BME280;46331;49.252;8.904;2022-07-04T00:50:58;99934.22;;;19.77;68.69
60489;BME280;46331;49.252;8.904;2022-07-04T00:53:24;99926.31;;;19.67;68.49
60489;BME280;46331;49.252;8.904;2022-07-04T00:55:53;99924.06;;;19.55;68.67
60489;BME280;46331;49.252;8.904;2022-07-04T00:58:22;99931.75;;;19.43;69.14
60489;BME280;46331;49.252;8.904;2022-07-04T01:00:48;99939.09;;;19.37;69.34
60489;BME280;46331;49.252;8.904;2022-07-04T01:03:15;99946.47;;;19.32;69.71
60489;BME280;46331;49.252;8.904;2022-07-04T01:05:42;99948.63;;;19.29;69.49
60489;BME280;46331;49.252;8.904;2022-07-04T01:08:08;99944.84;;;19.30;69.56
60489;BME280;46331;49.252;8.904;2022-07-04T01:10:34;99944.84;;;19.30;69.47
60489;BME280;46331;49.252;8.904;2022-07-04T01:12:59;99948.13;;;19.27;68.45
60489;BME280;46331;49.252;8.904;2022-07-04T01:15:25;99941.66;;;19.28;68.30
60489;BME280;46331;49.252;8.904;2022-07-04T01:17:50;99956.69;;;19.29;69.26
60489;BME280;46331;49.252;8.904;2022-07-04T01:20:16;99960.78;;;19.27;69.36
60489;BME280;46331;49.252;8.904;2022-07-04T01:22:42;99956.75;;;19.24;69.26
60489;BME280;46331;49.252;8.904;2022-07-04T01:25:08;99951.75;;;19.18;69.49
60489;BME280;46331;49.252;8.904;2022-07-04T01:27:34;99962.53;;;19.12;69.99
60489;BME280;46331;49.252;8.904;2022-07-04T01:30:00;99945.13;;;19.10;70.00
60489;BME280;46331;49.252;8.904;2022-07-04T01:32:26;99940.53;;;19.10;70.05
60489;BME280;46331;49.252;8.904;2022-07-04T01:34:51;99933.34;;;19.06;70.01
60489;BME280;46331;49.252;8.904;2022-07-04T01:37:17;99931.81;;;19.00;70.31
60489;BME280;46331;49.252;8.904;2022-07-04T01:39:43;99950.63;;;19.00;70.49
60489;BME280;46331;49.252;8.904;2022-07-04T01:42:09;99946.38;;;18.93;70.17
60489;BME280;46331;49.252;8.904;2022-07-04T01:44:35;99944.34;;;18.85;69.58
60489;BME280;46331;49.252;8.904;2022-07-04T01:47:01;99951.13;;;18.77;69.52
60489;BME280;46331;49.252;8.904;2022-07-04T01:49:27;99952.78;;;18.73;69.28
60489;BME280;46331;49.252;8.904;2022-07-04T01:51:53;99963.00;;;18.71;70.26
60489;BME280;46331;49.252;8.904;2022-07-04T01:54:19;99963.88;;;18.67;69.66
60489;BME280;46331;49.252;8.904;2022-07-04T01:56:45;99974.94;;;18.60;70.54
60489;BME280;46331;49.252;8.904;2022-07-04T01:59:11;99971.97;;;18.62;70.17
60489;BME280;46331;49.252;8.904;2022-07-04T02:01:39;99971.16;;;18.61;69.69
60489;BME280;46331;49.252;8.904;2022-07-04T02:04:06;99972.31;;;18.55;68.91
60489;BME280;46331;49.252;8.904;2022-07-04T02:06:33;99973.09;;;18.55;68.70
60489;BME280;46331;49.252;8.904;2022-07-04T02:08:59;99975.84;;;18.50;68.78
60489;BME280;46331;49.252;8.904;2022-07-04T02:11:45;99977.50;;;18.46;69.36
60489;BME280;46331;49.252;8.904;2022-07-04T02:14:30;99978.34;;;18.41;68.53
60489;BME280;46331;49.252;8.904;2022-07-04T02:16:56;99973.25;;;18.40;67.92
60489;BME280;46331;49.252;8.904;2022-07-04T02:19:22;99982.38;;;18.39;67.83
60489;BME280;46331;49.252;8.904;2022-07-04T02:21:48;99977.84;;;18.34;67.71
60489;BME280;46331;49.252;8.904;2022-07-04T02:24:13;99993.19;;;18.34;68.63
60489;BME280;46331;49.252;8.904;2022-07-04T02:26:39;99984.91;;;18.25;68.09
60489;BME280;46331;49.252;8.904;2022-07-04T02:29:05;100001.31;;;18.23;69.37
60489;BME280;46331;49.252;8.904;2022-07-04T02:31:30;100003.44;;;18.27;69.18
60489;BME280;46331;49.252;8.904;2022-07-04T02:33:56;100000.78;;;18.21;69.92
60489;BME280;46331;49.252;8.904;2022-07-04T02:36:22;100002.44;;;18.17;69.65
60489;BME280;46331;49.252;8.904;2022-07-04T02:38:47;99995.47;;;18.16;69.83
60489;BME280;46331;49.252;8.904;2022-07-04T02:41:13;99999.19;;;18.20;69.68
60489;BME280;46331;49.252;8.904;2022-07-04T02:43:38;100001.59;;;18.22;69.56
60489;BME280;46331;49.252;8.904;2022-07-04T02:46:04;100007.00;;;18.17;69.91
60489;BME280;46331;49.252;8.904;2022-07-04T02:48:29;100008.69;;;18.08;70.31
60489;BME280;46331;49.252;8.904;2022-07-04T02:50:55;100009.75;;;18.07;70.32
60489;BME280;46331;49.252;8.904;2022-07-04T02:53:20;100012.50;;;18.01;70.12
60489;BME280;46331;49.252;8.904;2022-07-04T02:55:46;100016.56;;;17.94;70.55
60489;BME280;46331;49.252;8.904;2022-07-04T02:58:11;100017.41;;;17.89;70.47
60489;BME280;46331;49.252;8.904;2022-07-04T03:00:37;100006.41;;;17.85;71.15
60489;BME280;46331;49.252;8.904;2022-07-04T03:03:02;100005.59;;;17.90;71.31
60489;BME280;46331;49.252;8.904;2022-07-04T03:05:28;100000.50;;;17.83;71.77
60489;BME280;46331;49.252;8.904;2022-07-04T03:07:57;100008.88;;;17.77;71.84
60489;BME280;46331;49.252;8.904;2022-07-04T03:10:23;100016.72;;;17.63;72.35
60489;BME280;46331;49.252;8.904;2022-07-04T03:12:48;100013.75;;;17.64;72.70
60489;BME280;46331;49.252;8.904;2022-07-04T03:15:14;100004.94;;;17.64;72.89
60489;BME280;46331;49.252;8.904;2022-07-04T03:17:39;100023.19;;;17.57;73.17
60489;BME280;46331;49.252;8.904;2022-07-04T03:20:05;100029.34;;;17.62;72.74
60489;BME280;46331;49.252;8.904;2022-07-04T03:22:31;100039.78;;;17.64;72.39
60489;BME280;46331;49.252;8.904;2022-07-04T03:24:57;100033.34;;;17.65;71.78
60489;BME280;46331;49.252;8.904;2022-07-04T03:27:22;100035.22;;;17.64;71.75
60489;BME280;46331;49.252;8.904;2022-07-04T03:29:48;100033.38;;;17.60;72.48
60489;BME280;46331;49.252;8.904;2022-07-04T03:32:13;100030.19;;;17.52;72.21
60489;BME280;46331;49.252;8.904;2022-07-04T03:34:39;100026.97;;;17.50;72.82
60489;BME280;46331;49.252;8.904;2022-07-04T03:37:04;100022.13;;;17.52;72.75
60489;BME280;46331;49.252;8.904;2022-07-04T03:39:30;100029.09;;;17.54;72.66
60489;BME280;46331;49.252;8.904;2022-07-04T03:41:55;100035.81;;;17.56;72.69
60489;BME280;46331;49.252;8.904;2022-07-04T03:44:21;100037.94;;;17.54;72.96
60489;BME280;46331;49.252;8.904;2022-07-04T03:46:47;100044.41;;;17.53;72.95
60489;BME280;46331;49.252;8.904;2022-07-04T03:49:12;100042.00;;;17.51;73.10
60489;BME280;46331;49.252;8.904;2022-07-04T03:51:38;100044.13;;;17.49;73.38
60489;BME280;46331;49.252;8.904;2022-07-04T03:54:03;100047.63;;;17.50;73.38
60489;BME280;46331;49.252;8.904;2022-07-04T03:56:29;100052.72;;;17.46;73.34
60489;BME280;46331;49.252;8.904;2022-07-04T03:58:55;100055.69;;;17.45;73.63
60489;BME280;46331;49.252;8.904;2022-07-04T04:01:21;100055.16;;;17.43;73.52
60489;BME280;46331;49.252;8.904;2022-07-04T04:03:47;100053.03;;;17.40;73.90
60489;BME280;46331;49.252;8.904;2022-07-04T04:06:31;100064.34;;;17.31;74.40
60489;BME280;46331;49.252;8.904;2022-07-04T04:08:56;100060.28;;;17.34;74.47
60489;BME280;46331;49.252;8.904;2022-07-04T04:11:24;100067.50;;;17.39;74.11
60489;BME280;46331;49.252;8.904;2022-07-04T04:13:50;100060.28;;;17.39;74.08
60489;BME280;46331;49.252;8.904;2022-07-04T04:16:15;100058.38;;;17.45;74.11
60489;BME280;46331;49.252;8.904;2022-07-04T04:18:41;100063.72;;;17.45;74.33
60489;BME280;46331;49.252;8.904;2022-07-04T04:21:07;100064.03;;;17.38;74.50
60489;BME280;46331;49.252;8.904;2022-07-04T04:23:33;100063.25;;;17.38;74.00
60489;BME280;46331;49.252;8.904;2022-07-04T04:25:59;100063.25;;;17.27;73.99
60489;BME280;46331;49.252;8.904;2022-07-04T04:28:24;100071.84;;;17.24;74.49
60489;BME280;46331;49.252;8.904;2022-07-04T04:30:50;100069.19;;;17.19;74.89
60489;BME280;46331;49.252;8.904;2022-07-04T04:33:16;100068.66;;;17.17;75.25
60489;BME280;46331;49.252;8.904;2022-07-04T04:35:41;100074.28;;;17.15;76.06
60489;BME280;46331;49.252;8.904;2022-07-04T04:38:07;100072.41;;;17.16;75.91
60489;BME280;46331;49.252;8.904;2022-07-04T04:40:32;100079.63;;;17.26;75.93
60489;BME280;46331;49.252;8.904;2022-07-04T04:42:58;100088.72;;;17.30;76.03
60489;BME280;46331;49.252;8.904;2022-07-04T04:45:24;100090.03;;;17.43;76.00
60489;BME280;46331;49.252;8.904;2022-07-04T04:47:49;100078.19;;;17.49;74.83
60489;BME280;46331;49.252;8.904;2022-07-04T04:50:15;100083.00;;;17.52;74.68
60489;BME280;46331;49.252;8.904;2022-07-04T04:52:41;100092.69;;;17.53;74.50
60489;BME280;46331;49.252;8.904;2022-07-04T04:55:07;100091.84;;;17.52;74.35
60489;BME280;46331;49.252;8.904;2022-07-04T04:57:34;100094.53;;;17.58;74.34
60489;BME280;46331;49.252;8.904;2022-07-04T04:59:59;100093.72;;;17.62;73.92
60489;BME280;46331;49.252;8.904;2022-07-04T05:02:26;100098.50;;;17.70;73.73
60489;BME280;46331;49.252;8.904;2022-07-04T05:04:52;100103.81;;;17.81;73.38
60489;BME280;46331;49.252;8.904;2022-07-04T05:07:19;100103.50;;;17.93;73.00
60489;BME280;46331;49.252;8.904;2022-07-04T05:09:44;100096.78;;;17.95;72.77
60489;BME280;46331;49.252;8.904;2022-07-04T05:12:10;100105.63;;;18.01;72.83
60489;BME280;46331;49.252;8.904;2022-07-04T05:14:36;100106.09;;;18.13;71.93
60489;BME280;46331;49.252;8.904;2022-07-04T05:17:01;100100.13;;;18.21;71.10
60489;BME280;46331;49.252;8.904;2022-07-04T05:19:27;100103.47;;;18.43;69.94
60489;BME280;46331;49.252;8.904;2022-07-04T05:21:53;100107.41;;;18.55;69.04
60489;BME280;46331;49.252;8.904;2022-07-04T05:24:18;100116.44;;;18.65;67.99
60489;BME280;46331;49.252;8.904;2022-07-04T05:26:44;100106.47;;;18.70;67.31
60489;BME280;46331;49.252;8.904;2022-07-04T05:29:10;100110.56;;;18.63;67.14
60489;BME280;46331;49.252;8.904;2022-07-04T05:31:35;100112.63;;;18.76;66.79
60489;BME280;46331;49.252;8.904;2022-07-04T05:34:02;100109.13;;;19.05;65.91
60489;BME280;46331;49.252;8.904;2022-07-04T05:36:28;100112.72;;;19.24;63.43
60489;BME280;46331;49.252;8.904;2022-07-04T05:38:54;100116.84;;;19.41;63.68
60489;BME280;46331;49.252;8.904;2022-07-04T05:41:19;100123.69;;;19.52;63.04
60489;BME280;46331;49.252;8.904;2022-07-04T05:43:45;100126.19;;;19.48;62.82
60489;BME280;46331;49.252;8.904;2022-07-04T05:46:11;100134.56;;;19.66;62.57
60489;BME280;46331;49.252;8.904;2022-07-04T05:48:37;100122.16;;;19.70;62.41
60489;BME280;46331;49.252;8.904;2022-07-04T05:51:03;100124.22;;;19.78;61.84
60489;BME280;46331;49.252;8.904;2022-07-04T05:53:29;100124.59;;;19.66;60.46
60489;BME280;46331;49.252;8.904;2022-07-04T05:55:55;100135.72;;;19.84;60.62
60489;BME280;46331;49.252;8.904;2022-07-04T05:58:20;100127.78;;;19.93;60.18
60489;BME280;46331;49.252;8.904;2022-07-04T06:00:46;100129.19;;;19.90;60.02
60489;BME280;46331;49.252;8.904;2022-07-04T06:03:12;100131.53;;;19.73;60.33
60489;BME280;46331;49.252;8.904;2022-07-04T06:05:37;100130.41;;;19.79;60.64
60489;BME280;46331;49.252;8.904;2022-07-04T06:08:03;100131.22;;;19.98;60.23
60489;BME280;46331;49.252;8.904;2022-07-04T06:10:29;100130.34;;;20.22;59.45
60489;BME280;46331;49.252;8.904;2022-07-04T06:12:55;100133.56;;;20.43;58.78
60489;BME280;46331;49.252;8.904;2022-07-04T06:15:21;100139.38;;;20.69;58.66
60489;BME280;46331;49.252;8.904;2022-07-04T06:17:46;100123.28;;;20.97;57.50
60489;BME280;46331;49.252;8.904;2022-07-04T06:20:12;100129.53;;;21.25;56.65
60489;BME280;46331;49.252;8.904;2022-07-04T06:22:46;100119.31;;;21.22;56.43
60489;BME280;46331;49.252;8.904;2022-07-04T06:25:13;100124.13;;;21.25;56.68
60489;BME280;46331;49.252;8.904;2022-07-04T06:27:40;100127.13;;;21.24;56.28
60489;BME280;46331;49.252;8.904;2022-07-04T06:30:09;100119.44;;;21.59;55.77
60489;BME280;46331;49.252;8.904;2022-07-04T06:32:52;100122.66;;;21.61;53.71
60489;BME280;46331;49.252;8.904;2022-07-04T06:35:24;100125.41;;;21.28;54.00
60489;BME280;46331;49.252;8.904;2022-07-04T06:38:09;100118.31;;;21.46;54.25
60489;BME280;46331;49.252;8.904;2022-07-04T06:40:37;100125.53;;;21.78;54.22
60489;BME280;46331;49.252;8.904;2022-07-04T06:43:03;100125.06;;;21.99;52.74
60489;BME280;46331;49.252;8.904;2022-07-04T06:45:29;100133.47;;;21.97;52.94
60489;BME280;46331;49.252;8.904;2022-07-04T06:47:56;100123.25;;;22.08;51.98
60489;BME280;46331;49.252;8.904;2022-07-04T06:50:22;100122.09;;;22.37;51.11
60489;BME280;46331;49.252;8.904;2022-07-04T06:52:47;100117.50;;;22.60;50.39
60489;BME280;46331;49.252;8.904;2022-07-04T06:55:14;100120.28;;;22.78;50.09
60489;BME280;46331;49.252;8.904;2022-07-04T06:57:39;100115.88;;;22.82;49.72
60489;BME280;46331;49.252;8.904;2022-07-04T07:00:06;100114.00;;;23.23;48.96
60489;BME280;46331;49.252;8.904;2022-07-04T07:02:36;100115.75;;;23.18;48.54
60489;BME280;46331;49.252;8.904;2022-07-04T07:05:03;100118.13;;;23.60;47.95
60489;BME280;46331;49.252;8.904;2022-07-04T07:07:29;100112.78;;;24.04;47.62
60489;BME280;46331;49.252;8.904;2022-07-04T07:09:55;100108.66;;;24.68;45.69
60489;BME280;46331;49.252;8.904;2022-07-04T07:12:22;100100.34;;;25.11;44.42
60489;BME280;46331;49.252;8.904;2022-07-04T07:14:49;100102.66;;;25.39;43.71
60489;BME280;46331;49.252;8.904;2022-07-04T07:17:15;100097.09;;;25.86;42.61
60489;BME280;46331;49.252;8.904;2022-07-04T07:19:42;100096.53;;;25.51;43.79
60489;BME280;46331;49.252;8.904;2022-07-04T07:22:09;100088.78;;;25.62;43.50
60489;BME280;46331;49.252;8.904;2022-07-04T07:24:35;100093.53;;;25.44;43.50
60489;BME280;46331;49.252;8.904;2022-07-04T07:27:00;100085.63;;;25.81;43.28
60489;BME280;46331;49.252;8.904;2022-07-04T07:29:26;100080.56;;;26.67;40.81
60489;BME280;46331;49.252;8.904;2022-07-04T07:31:51;100077.44;;;27.27;39.35
60489;BME280;46331;49.252;8.904;2022-07-04T07:34:17;100075.56;;;27.80;38.45
60489;BME280;46331;49.252;8.904;2022-07-04T07:36:42;100067.28;;;27.77;38.15
60489;BME280;46331;49.252;8.904;2022-07-04T07:39:08;100072.72;;;27.77;37.43
60489;BME280;46331;49.252;8.904;2022-07-04T07:41:33;100076.41;;;28.38;37.18
60489;BME280;46331;49.252;8.904;2022-07-04T07:43:59;100075.44;;;28.46;36.75
60489;BME280;46331;49.252;8.904;2022-07-04T07:46:24;100077.38;;;28.45;36.89
60489;BME280;46331;49.252;8.904;2022-07-04T07:48:50;100082.72;;;28.70;36.25
60489;BME280;46331;49.252;8.904;2022-07-04T07:51:16;100079.81;;;29.11;35.59
60489;BME280;46331;49.252;8.904;2022-07-04T07:53:42;100073.91;;;29.08;34.99
60489;BME280;46331;49.252;8.904;2022-07-04T07:56:08;100068.84;;;29.78;34.13
60489;BME280;46331;49.252;8.904;2022-07-04T07:58:35;100066.25;;;30.24;32.73
60489;BME280;46331;49.252;8.904;2022-07-04T08:01:01;100059.88;;;31.06;31.79
60489;BME280;46331;49.252;8.904;2022-07-04T08:03:28;100064.47;;;31.28;30.80
60489;BME280;46331;49.252;8.904;2022-07-04T08:06:13;100060.03;;;30.93;30.83
60489;BME280;46331;49.252;8.904;2022-07-04T08:08:40;100066.16;;;31.10;31.46
60489;BME280;46331;49.252;8.904;2022-07-04T08:11:05;100067.28;;;31.05;31.35
60489;BME280;46331;49.252;8.904;2022-07-04T08:13:31;100059.16;;;31.66;29.75
60489;BME280;46331;49.252;8.904;2022-07-04T08:15:57;100059.84;;;31.59;29.95
60489;BME280;46331;49.252;8.904;2022-07-04T08:18:23;100062.59;;;31.32;29.26
60489;BME280;46331;49.252;8.904;2022-07-04T08:20:49;100049.72;;;31.63;29.23
60489;BME280;46331;49.252;8.904;2022-07-04T08:23:16;100045.81;;;31.64;28.59
60489;BME280;46331;49.252;8.904;2022-07-04T08:25:41;100045.63;;;31.23;29.33
60489;BME280;46331;49.252;8.904;2022-07-04T08:28:07;100045.44;;;31.09;29.15
60489;BME280;46331;49.252;8.904;2022-07-04T08:30:33;100048.03;;;30.32;30.38
60489;BME280;46331;49.252;8.904;2022-07-04T08:32:59;100047.94;;;30.48;29.80
60489;BME280;46331;49.252;8.904;2022-07-04T08:35:25;100046.84;;;30.76;29.54
60489;BME280;46331;49.252;8.904;2022-07-04T08:37:50;100045.09;;;31.41;28.91
60489;BME280;46331;49.252;8.904;2022-07-04T08:40:24;100049.84;;;31.17;28.83
60489;BME280;46331;49.252;8.904;2022-07-04T08:42:50;100045.63;;;30.73;29.69
60489;BME280;46331;49.252;8.904;2022-07-04T08:45:16;100041.16;;;30.88;29.48
60489;BME280;46331;49.252;8.904;2022-07-04T08:47:43;100042.16;;;29.71;31.77
60489;BME280;46331;49.252;8.904;2022-07-04T08:50:19;100042.31;;;29.43;32.36
60489;BME280;46331;49.252;8.904;2022-07-04T08:52:53;100037.06;;;29.18;32.14
60489;BME280;46331;49.252;8.904;2022-07-04T08:55:19;100040.53;;;28.67;32.21
60489;BME280;46331;49.252;8.904;2022-07-04T08:58:04;100038.81;;;27.74;33.65
60489;BME280;46331;49.252;8.904;2022-07-04T09:00:49;100032.63;;;28.62;31.35
60489;BME280;46331;49.252;8.904;2022-07-04T09:03:18;100030.50;;;29.03;30.49
60489;BME280;46331;49.252;8.904;2022-07-04T09:05:44;100034.63;;;30.04;30.29
60489;BME280;46331;49.252;8.904;2022-07-04T09:08:10;100033.53;;;30.51;29.46
60489;BME280;46331;49.252;8.904;2022-07-04T09:10:36;100037.50;;;31.03;28.20
60489;BME280;46331;49.252;8.904;2022-07-04T09:13:03;100034.72;;;31.00;28.27
60489;BME280;46331;49.252;8.904;2022-07-04T09:15:30;100035.59;;;31.95;26.73
60489;BME280;46331;49.252;8.904;2022-07-04T09:17:57;100037.72;;;32.47;26.10
60489;BME280;46331;49.252;8.904;2022-07-04T09:20:23;100037.84;;;32.16;26.66
60489;BME280;46331;49.252;8.904;2022-07-04T09:22:50;100039.75;;;32.16;25.88
60489;BME280;46331;49.252;8.904;2022-07-04T09:25:17;100040.59;;;32.61;26.20
60489;BME280;46331;49.252;8.904;2022-07-04T09:27:45;100050.66;;;32.46;25.72
60489;BME280;46331;49.252;8.904;2022-07-04T09:30:14;100056.47;;;32.03;25.42
60489;BME280;46331;49.252;8.904;2022-07-04T09:32:45;100041.00;;;31.27;26.38
60489;BME280;46331;49.252;8.904;2022-07-04T09:35:18;100051.53;;;31.82;26.76
60489;BME280;46331;49.252;8.904;2022-07-04T09:37:55;100058.25;;;32.63;23.93
60489;BME280;46331;49.252;8.904;2022-07-04T09:40:22;100052.38;;;33.13;23.79
60489;BME280;46331;49.252;8.904;2022-07-04T09:42:48;100055.63;;;33.26;24.18
60489;BME280;46331;49.252;8.904;2022-07-04T09:45:14;100057.34;;;33.53;23.45
60489;BME280;46331;49.252;8.904;2022-07-04T09:47:41;100056.22;;;33.68;23.87
60489;BME280;46331;49.252;8.904;2022-07-04T09:52:59;100054.13;;;32.39;25.70
60489;BME280;46331;49.252;8.904;2022-07-04T09:55:30;100057.44;;;31.54;26.04
60489;BME280;46331;49.252;8.904;2022-07-04T09:58:00;100073.75;;;31.73;26.78
60489;BME280;46331;49.252;8.904;2022-07-04T10:00:28;100057.34;;;31.77;26.19
60489;BME280;46331;49.252;8.904;2022-07-04T10:03:24;100054.56;;;31.73;26.48
60489;BME280;46331;49.252;8.904;2022-07-04T10:06:10;100055.72;;;32.06;26.11
60489;BME280;46331;49.252;8.904;2022-07-04T10:08:38;100052.75;;;32.63;24.95
60489;BME280;46331;49.252;8.904;2022-07-04T10:11:06;100063.75;;;32.22;26.17
60489;BME280;46331;49.252;8.904;2022-07-04T10:13:32;100062.84;;;31.24;27.10
60489;BME280;46331;49.252;8.904;2022-07-04T10:15:58;100053.22;;;30.60;28.44
60489;BME280;46331;49.252;8.904;2022-07-04T10:18:25;100050.75;;;30.98;27.79
60489;BME280;46331;49.252;8.904;2022-07-04T10:20:52;100047.34;;;30.39;29.21
60489;BME280;46331;49.252;8.904;2022-07-04T10:23:20;100060.22;;;29.95;29.30
60489;BME280;46331;49.252;8.904;2022-07-04T10:25:47;100055.25;;;30.21;28.18
60489;BME280;46331;49.252;8.904;2022-07-04T10:28:14;100047.59;;;31.23;28.04
60489;BME280;46331;49.252;8.904;2022-07-04T10:30:40;100052.72;;;31.54;27.16
60489;BME280;46331;49.252;8.904;2022-07-04T10:33:09;100052.47;;;30.87;28.08
60489;BME280;46331;49.252;8.904;2022-07-04T10:38:21;100058.16;;;30.74;28.10
60489;BME280;46331;49.252;8.904;2022-07-04T10:40:48;100055.66;;;31.12;27.86
60489;BME280;46331;49.252;8.904;2022-07-04T10:54:13;100060.66;;;33.17;24.50
60489;BME280;46331;49.252;8.904;2022-07-04T10:56:53;100048.75;;;33.61;23.33
60489;BME280;46331;49.252;8.904;2022-07-04T10:59:27;100059.72;;;32.50;24.31
60489;BME280;46331;49.252;8.904;2022-07-04T11:05:06;100056.16;;;31.48;25.94
60489;BME280;46331;49.252;8.904;2022-07-04T11:17:59;100048.41;;;31.27;26.52
60489;BME280;46331;49.252;8.904;2022-07-04T11:20:28;100048.13;;;31.92;25.79
60489;BME280;46331;49.252;8.904;2022-07-04T11:23:11;100043.28;;;32.54;25.03
60489;BME280;46331;49.252;8.904;2022-07-04T11:25:39;100042.94;;;33.07;24.76
60489;BME280;46331;49.252;8.904;2022-07-04T11:28:27;100039.41;;;33.10;24.49
60489;BME280;46331;49.252;8.904;2022-07-04T11:30:56;100031.75;;;31.66;24.56
60489;BME280;46331;49.252;8.904;2022-07-04T11:33:25;100031.81;;;31.43;25.06
60489;BME280;46331;49.252;8.904;2022-07-04T11:36:14;100034.00;;;31.03;24.92
60489;BME280;46331;49.252;8.904;2022-07-04T11:41:15;100032.13;;;31.37;25.25
60489;BME280;46331;49.252;8.904;2022-07-04T11:44:09;100022.09;;;30.69;25.53
60489;BME280;46331;49.252;8.904;2022-07-04T11:47:17;100016.34;;;31.00;24.74
60489;BME280;46331;49.252;8.904;2022-07-04T11:49:54;100018.84;;;31.13;25.37
60489;BME280;46331;49.252;8.904;2022-07-04T11:52:26;100017.88;;;30.75;25.22
60489;BME280;46331;49.252;8.904;2022-07-04T11:54:52;100016.50;;;30.61;24.50
60489;BME280;46331;49.252;8.904;2022-07-04T11:57:19;100008.63;;;31.10;24.81
60489;BME280;46331;49.252;8.904;2022-07-04T12:00:11;100011.28;;;31.29;25.24
60489;BME280;46331;49.252;8.904;2022-07-04T12:02:38;99999.53;;;31.59;24.40
60489;BME280;46331;49.252;8.904;2022-07-04T12:05:06;100008.16;;;31.91;23.48
60489;BME280;46331;49.252;8.904;2022-07-04T12:07:34;100000.75;;;32.37;23.06
60489;BME280;46331;49.252;8.904;2022-07-04T12:10:17;100000.28;;;31.90;24.37
60489;BME280;46331;49.252;8.904;2022-07-04T12:13:03;100002.66;;;32.74;22.89
60489;BME280;46331;49.252;8.904;2022-07-04T12:15:47;100006.69;;;32.87;23.80
60489;BME280;46331;49.252;8.904;2022-07-04T12:18:24;100002.19;;;32.20;21.53
60489;BME280;46331;49.252;8.904;2022-07-04T12:20:51;100002.34;;;32.38;21.22
60489;BME280;46331;49.252;8.904;2022-07-04T12:23:23;100000.91;;;33.07;20.74
60489;BME280;46331;49.252;8.904;2022-07-04T12:25:54;100006.69;;;32.91;21.05
60489;BME280;46331;49.252;8.904;2022-07-04T12:28:19;99991.88;;;33.06;21.25
60489;BME280;46331;49.252;8.904;2022-07-04T12:33:25;99987.47;;;32.91;21.24
60489;BME280;46331;49.252;8.904;2022-07-04T12:36:01;99982.47;;;33.07;21.36
60489;BME280;46331;49.252;8.904;2022-07-04T12:41:00;99978.13;;;33.06;19.69
60489;BME280;46331;49.252;8.904;2022-07-04T12:46:05;99963.84;;;33.53;20.64
60489;BME280;46331;49.252;8.904;2022-07-04T12:48:32;99956.72;;;33.41;19.65
60489;BME280;46331;49.252;8.904;2022-07-04T12:51:18;99962.31;;;33.69;19.98
60489;BME280;46331;49.252;8.904;2022-07-04T12:53:45;99953.91;;;33.23;19.80
60489;BME280;46331;49.252;8.904;2022-07-04T12:56:30;99949.03;;;34.04;19.15
60489;BME280;46331;49.252;8.904;2022-07-04T12:58:58;99943.53;;;34.11;19.63
60489;BME280;46331;49.252;8.904;2022-07-04T13:01:23;99943.25;;;33.18;20.23
60489;BME280;46331;49.252;8.904;2022-07-04T13:03:49;99944.91;;;33.33;19.70
60489;BME280;46331;49.252;8.904;2022-07-04T13:06:14;99940.44;;;34.31;19.32
60489;BME280;46331;49.252;8.904;2022-07-04T13:08:40;99932.53;;;34.76;18.30
60489;BME280;46331;49.252;8.904;2022-07-04T13:11:06;99939.59;;;34.66;18.54
60489;BME280;46331;49.252;8.904;2022-07-04T13:13:50;99934.06;;;34.91;18.18
60489;BME280;46331;49.252;8.904;2022-07-04T13:16:15;99933.31;;;34.12;18.81
60489;BME280;46331;49.252;8.904;2022-07-04T13:18:41;99921.88;;;33.74;19.01
60489;BME280;46331;49.252;8.904;2022-07-04T13:21:07;99931.34;;;34.09;19.21
60489;BME280;46331;49.252;8.904;2022-07-04T13:23:32;99921.88;;;33.74;19.79
60489;BME280;46331;49.252;8.904;2022-07-04T13:25:58;99926.81;;;33.28;20.42
60489;BME280;46331;49.252;8.904;2022-07-04T13:28:23;99916.03;;;34.18;19.79
60489;BME280;46331;49.252;8.904;2022-07-04T13:30:49;99909.16;;;35.17;18.74
60489;BME280;46331;49.252;8.904;2022-07-04T13:33:15;99916.31;;;35.81;18.14
60489;BME280;46331;49.252;8.904;2022-07-04T13:35:41;99916.47;;;36.61;17.21
60489;BME280;46331;49.252;8.904;2022-07-04T13:38:07;99914.50;;;36.58;17.71